This is the latest recevied weather packets stored in our database for station/object K5GHS-1. If no packets are shown the sender has not sent any weather packets the latest 10 day(s).
| Time | Temp. | Humidity | Pressure | Rain* | Wind** | Luminosity | Snow |
|---|---|---|---|---|---|---|---|
| 1777495056 | 16.67° C | 92% | 1011.6 hPa | 0 mm | - | 222 W/m² | - |
| 1777494754 | 16.11° C | 91% | 1011.8 hPa | 0 mm | - | 276 W/m² | - |
| 1777494451 | 16.67° C | 90% | 1012.6 hPa | 0 mm | - | 121 W/m² | - |
| 1777494147 | 16.67° C | 90% | 1012.5 hPa | 0 mm | - | 200 W/m² | - |
| 1777493844 | 16.67° C | 88% | 1012.6 hPa | 6.6 mm | - | 144 W/m² | - |
| 1777493543 | 16.67° C | 87% | 1013.4 hPa | 24.64 mm | - | 96 W/m² | - |
| 1777493240 | 17.22° C | 85% | 1013.2 hPa | 15.49 mm | - | 182 W/m² | - |
| 1777492936 | 16.67° C | 83% | 1013.8 hPa | 1.78 mm | - | 37 W/m² | - |
| 1777492632 | 16.67° C | 82% | 1014.2 hPa | 0 mm | - | 19 W/m² | - |
| 1777492328 | 16.67° C | 82% | 1013.5 hPa | 0 mm | - | 32 W/m² | - |
| 1777492025 | 16.67° C | 81% | 1013.2 hPa | 0 mm | - | 35 W/m² | - |
| 1777491721 | 17.22° C | 81% | 1013.4 hPa | 0 mm | - | 37 W/m² | - |
| 1777491419 | 17.22° C | 81% | 1012.8 hPa | 0 mm | - | 28 W/m² | - |
| 1777491116 | 17.22° C | 80% | 1012.4 hPa | 0 mm | - | 32 W/m² | - |
| 1777490811 | 17.22° C | 80% | 1012.3 hPa | 0 mm | - | 41 W/m² | - |
| 1777490508 | 17.22° C | 80% | 1012.1 hPa | 0 mm | - | 28 W/m² | - |
| 1777490204 | 17.22° C | 80% | 1012.4 hPa | 0 mm | - | 72 W/m² | - |
| 1777489901 | 17.22° C | 79% | 1012.7 hPa | 0 mm | - | 48 W/m² | - |
| 1777489599 | 17.22° C | 79% | 1012.3 hPa | 0 mm | - | 77 W/m² | - |
| 1777489295 | 17.78° C | 79% | 1012.2 hPa | 0 mm | - | 105 W/m² | - |
* Rain latest hour (hover to see other rain measurements)
** Current wind speed in m/s (hover to see current wind gust speed)